sensor_id;sensor_type;location;lat;lon;timestamp;P1;durP1;ratioP1;P2;durP2;ratioP2
56399;SDS011;42298;53.638;9.876;2023-07-20T00:01:15;5.32;;;2.45;;
56399;SDS011;42298;53.638;9.876;2023-07-20T00:03:40;4.78;;;2.20;;
56399;SDS011;42298;53.638;9.876;2023-07-20T00:06:05;4.18;;;2.08;;
56399;SDS011;42298;53.638;9.876;2023-07-20T00:08:31;4.00;;;2.40;;
56399;SDS011;42298;53.638;9.876;2023-07-20T00:10:57;5.40;;;2.30;;
56399;SDS011;42298;53.638;9.876;2023-07-20T00:13:22;3.60;;;2.42;;
56399;SDS011;42298;53.638;9.876;2023-07-20T00:15:47;4.80;;;2.58;;
56399;SDS011;42298;53.638;9.876;2023-07-20T00:18:13;5.07;;;2.50;;
56399;SDS011;42298;53.638;9.876;2023-07-20T00:20:38;5.57;;;2.72;;
56399;SDS011;42298;53.638;9.876;2023-07-20T00:23:04;5.30;;;2.40;;
56399;SDS011;42298;53.638;9.876;2023-07-20T00:25:29;3.28;;;2.20;;
56399;SDS011;42298;53.638;9.876;2023-07-20T00:27:55;3.30;;;2.15;;
56399;SDS011;42298;53.638;9.876;2023-07-20T00:30:20;3.88;;;2.22;;
56399;SDS011;42298;53.638;9.876;2023-07-20T00:32:46;5.18;;;2.47;;
56399;SDS011;42298;53.638;9.876;2023-07-20T00:35:12;4.55;;;2.47;;
56399;SDS011;42298;53.638;9.876;2023-07-20T00:37:39;3.85;;;2.15;;
56399;SDS011;42298;53.638;9.876;2023-07-20T00:40:05;5.05;;;2.60;;
56399;SDS011;42298;53.638;9.876;2023-07-20T00:42:32;7.85;;;2.83;;
56399;SDS011;42298;53.638;9.876;2023-07-20T00:44:58;5.22;;;2.58;;
56399;SDS011;42298;53.638;9.876;2023-07-20T00:47:23;4.32;;;2.60;;
56399;SDS011;42298;53.638;9.876;2023-07-20T00:49:49;6.97;;;2.75;;
56399;SDS011;42298;53.638;9.876;2023-07-20T00:52:16;4.22;;;2.70;;
56399;SDS011;42298;53.638;9.876;2023-07-20T00:54:41;7.65;;;3.15;;
56399;SDS011;42298;53.638;9.876;2023-07-20T00:57:07;6.38;;;3.00;;
56399;SDS011;42298;53.638;9.876;2023-07-20T00:59:33;4.57;;;2.85;;
56399;SDS011;42298;53.638;9.876;2023-07-20T01:01:59;4.45;;;2.65;;
56399;SDS011;42298;53.638;9.876;2023-07-20T01:04:24;7.07;;;3.30;;
56399;SDS011;42298;53.638;9.876;2023-07-20T01:06:58;6.13;;;3.20;;
56399;SDS011;42298;53.638;9.876;2023-07-20T01:09:34;6.45;;;2.88;;
56399;SDS011;42298;53.638;9.876;2023-07-20T01:12:22;6.95;;;3.42;;
56399;SDS011;42298;53.638;9.876;2023-07-20T01:14:52;8.15;;;3.55;;
56399;SDS011;42298;53.638;9.876;2023-07-20T01:17:18;4.30;;;3.28;;
56399;SDS011;42298;53.638;9.876;2023-07-20T01:19:43;4.65;;;2.83;;
56399;SDS011;42298;53.638;9.876;2023-07-20T01:22:11;5.47;;;3.53;;
56399;SDS011;42298;53.638;9.876;2023-07-20T01:25:03;9.23;;;3.90;;
56399;SDS011;42298;53.638;9.876;2023-07-20T01:27:48;5.03;;;3.70;;
56399;SDS011;42298;53.638;9.876;2023-07-20T01:33:15;8.52;;;4.22;;
56399;SDS011;42298;53.638;9.876;2023-07-20T01:35:42;7.25;;;4.38;;
56399;SDS011;42298;53.638;9.876;2023-07-20T01:38:10;6.00;;;3.72;;
56399;SDS011;42298;53.638;9.876;2023-07-20T01:40:37;7.63;;;3.42;;
56399;SDS011;42298;53.638;9.876;2023-07-20T01:43:04;7.18;;;3.97;;
56399;SDS011;42298;53.638;9.876;2023-07-20T01:45:29;4.07;;;3.13;;
56399;SDS011;42298;53.638;9.876;2023-07-20T01:47:54;6.63;;;3.80;;
56399;SDS011;42298;53.638;9.876;2023-07-20T01:50:20;9.40;;;3.53;;
56399;SDS011;42298;53.638;9.876;2023-07-20T01:52:45;5.63;;;3.40;;
56399;SDS011;42298;53.638;9.876;2023-07-20T01:55:10;6.93;;;3.40;;
56399;SDS011;42298;53.638;9.876;2023-07-20T01:57:36;6.63;;;3.17;;
56399;SDS011;42298;53.638;9.876;2023-07-20T02:00:01;6.50;;;3.95;;
56399;SDS011;42298;53.638;9.876;2023-07-20T02:02:27;5.80;;;4.05;;
56399;SDS011;42298;53.638;9.876;2023-07-20T02:04:57;5.45;;;3.20;;
56399;SDS011;42298;53.638;9.876;2023-07-20T02:07:22;8.45;;;4.00;;
56399;SDS011;42298;53.638;9.876;2023-07-20T02:09:47;5.28;;;3.30;;
56399;SDS011;42298;53.638;9.876;2023-07-20T02:12:13;6.80;;;3.88;;
56399;SDS011;42298;53.638;9.876;2023-07-20T02:14:38;8.23;;;4.32;;
56399;SDS011;42298;53.638;9.876;2023-07-20T02:17:05;4.97;;;3.50;;
56399;SDS011;42298;53.638;9.876;2023-07-20T02:19:30;7.80;;;4.53;;
56399;SDS011;42298;53.638;9.876;2023-07-20T02:21:56;7.32;;;4.18;;
56399;SDS011;42298;53.638;9.876;2023-07-20T02:24:22;5.82;;;3.53;;
56399;SDS011;42298;53.638;9.876;2023-07-20T02:26:47;5.53;;;3.58;;
56399;SDS011;42298;53.638;9.876;2023-07-20T02:29:12;5.57;;;3.58;;
56399;SDS011;42298;53.638;9.876;2023-07-20T02:31:38;7.13;;;3.85;;
56399;SDS011;42298;53.638;9.876;2023-07-20T02:34:04;6.50;;;3.70;;
56399;SDS011;42298;53.638;9.876;2023-07-20T02:36:30;6.22;;;3.80;;
56399;SDS011;42298;53.638;9.876;2023-07-20T02:38:58;7.53;;;4.07;;
56399;SDS011;42298;53.638;9.876;2023-07-20T02:41:24;7.55;;;4.43;;
56399;SDS011;42298;53.638;9.876;2023-07-20T02:43:49;4.97;;;3.25;;
56399;SDS011;42298;53.638;9.876;2023-07-20T02:46:15;6.07;;;3.95;;
56399;SDS011;42298;53.638;9.876;2023-07-20T02:48:40;5.80;;;3.72;;
56399;SDS011;42298;53.638;9.876;2023-07-20T02:51:05;6.60;;;3.53;;
56399;SDS011;42298;53.638;9.876;2023-07-20T02:53:32;5.22;;;3.20;;
56399;SDS011;42298;53.638;9.876;2023-07-20T02:55:57;3.65;;;3.08;;
56399;SDS011;42298;53.638;9.876;2023-07-20T02:58:23;7.90;;;4.40;;
56399;SDS011;42298;53.638;9.876;2023-07-20T03:00:48;7.43;;;3.72;;
56399;SDS011;42298;53.638;9.876;2023-07-20T03:03:13;7.43;;;4.40;;
56399;SDS011;42298;53.638;9.876;2023-07-20T03:05:40;6.15;;;3.92;;
56399;SDS011;42298;53.638;9.876;2023-07-20T03:08:06;6.60;;;4.10;;
56399;SDS011;42298;53.638;9.876;2023-07-20T03:10:31;5.78;;;3.75;;
56399;SDS011;42298;53.638;9.876;2023-07-20T03:12:57;5.55;;;3.90;;
56399;SDS011;42298;53.638;9.876;2023-07-20T03:15:24;6.00;;;3.50;;
56399;SDS011;42298;53.638;9.876;2023-07-20T03:17:49;5.53;;;3.72;;
56399;SDS011;42298;53.638;9.876;2023-07-20T03:20:15;8.05;;;4.47;;
56399;SDS011;42298;53.638;9.876;2023-07-20T03:22:41;7.03;;;4.15;;
56399;SDS011;42298;53.638;9.876;2023-07-20T03:25:06;7.13;;;4.57;;
56399;SDS011;42298;53.638;9.876;2023-07-20T03:27:32;6.65;;;3.75;;
56399;SDS011;42298;53.638;9.876;2023-07-20T03:29:58;6.25;;;4.10;;
56399;SDS011;42298;53.638;9.876;2023-07-20T03:32:23;7.35;;;4.32;;
56399;SDS011;42298;53.638;9.876;2023-07-20T03:34:48;7.72;;;3.83;;
56399;SDS011;42298;53.638;9.876;2023-07-20T03:37:14;6.05;;;4.13;;
56399;SDS011;42298;53.638;9.876;2023-07-20T03:39:40;4.70;;;3.22;;
56399;SDS011;42298;53.638;9.876;2023-07-20T03:42:05;7.70;;;3.88;;
56399;SDS011;42298;53.638;9.876;2023-07-20T03:44:31;5.72;;;3.53;;
56399;SDS011;42298;53.638;9.876;2023-07-20T03:46:57;6.65;;;4.00;;
56399;SDS011;42298;53.638;9.876;2023-07-20T03:49:22;5.80;;;3.50;;
56399;SDS011;42298;53.638;9.876;2023-07-20T03:51:48;6.15;;;3.90;;
56399;SDS011;42298;53.638;9.876;2023-07-20T03:54:13;5.20;;;3.58;;
56399;SDS011;42298;53.638;9.876;2023-07-20T03:56:38;7.45;;;4.05;;
56399;SDS011;42298;53.638;9.876;2023-07-20T03:59:04;6.38;;;3.60;;
56399;SDS011;42298;53.638;9.876;2023-07-20T04:01:29;6.40;;;3.88;;
56399;SDS011;42298;53.638;9.876;2023-07-20T04:03:55;5.63;;;3.67;;
56399;SDS011;42298;53.638;9.876;2023-07-20T04:06:22;5.93;;;3.47;;
56399;SDS011;42298;53.638;9.876;2023-07-20T04:08:47;4.70;;;3.70;;
56399;SDS011;42298;53.638;9.876;2023-07-20T04:11:13;6.38;;;3.97;;
56399;SDS011;42298;53.638;9.876;2023-07-20T04:13:38;4.63;;;3.55;;
56399;SDS011;42298;53.638;9.876;2023-07-20T04:16:05;5.20;;;3.75;;
56399;SDS011;42298;53.638;9.876;2023-07-20T04:18:30;5.97;;;3.13;;
56399;SDS011;42298;53.638;9.876;2023-07-20T04:20:55;4.30;;;2.78;;
56399;SDS011;42298;53.638;9.876;2023-07-20T04:23:21;3.35;;;2.60;;
56399;SDS011;42298;53.638;9.876;2023-07-20T04:25:46;7.30;;;4.10;;
56399;SDS011;42298;53.638;9.876;2023-07-20T04:28:11;4.25;;;3.00;;
56399;SDS011;42298;53.638;9.876;2023-07-20T04:30:37;5.13;;;3.22;;
56399;SDS011;42298;53.638;9.876;2023-07-20T04:33:05;6.82;;;3.58;;
56399;SDS011;42298;53.638;9.876;2023-07-20T04:35:47;4.85;;;3.00;;
56399;SDS011;42298;53.638;9.876;2023-07-20T04:38:20;3.28;;;2.60;;
56399;SDS011;42298;53.638;9.876;2023-07-20T04:40:47;5.32;;;2.90;;
56399;SDS011;42298;53.638;9.876;2023-07-20T04:43:14;5.22;;;3.22;;
56399;SDS011;42298;53.638;9.876;2023-07-20T04:45:40;4.13;;;3.08;;
56399;SDS011;42298;53.638;9.876;2023-07-20T04:48:07;3.63;;;2.50;;
56399;SDS011;42298;53.638;9.876;2023-07-20T04:50:40;5.13;;;2.78;;
56399;SDS011;42298;53.638;9.876;2023-07-20T04:53:05;5.07;;;2.90;;
56399;SDS011;42298;53.638;9.876;2023-07-20T04:55:30;5.05;;;3.28;;
56399;SDS011;42298;53.638;9.876;2023-07-20T04:57:58;4.97;;;3.03;;
56399;SDS011;42298;53.638;9.876;2023-07-20T05:00:24;4.03;;;2.90;;
56399;SDS011;42298;53.638;9.876;2023-07-20T05:02:49;5.75;;;2.55;;
56399;SDS011;42298;53.638;9.876;2023-07-20T05:05:15;6.18;;;3.03;;
56399;SDS011;42298;53.638;9.876;2023-07-20T05:07:40;4.32;;;2.83;;
56399;SDS011;42298;53.638;9.876;2023-07-20T05:10:06;6.25;;;3.13;;
56399;SDS011;42298;53.638;9.876;2023-07-20T05:12:32;6.47;;;3.08;;
56399;SDS011;42298;53.638;9.876;2023-07-20T05:14:57;5.93;;;3.17;;
56399;SDS011;42298;53.638;9.876;2023-07-20T05:17:25;7.60;;;3.30;;
56399;SDS011;42298;53.638;9.876;2023-07-20T05:19:51;6.50;;;3.13;;
56399;SDS011;42298;53.638;9.876;2023-07-20T05:22:16;8.27;;;3.50;;
56399;SDS011;42298;53.638;9.876;2023-07-20T05:24:41;6.55;;;3.05;;
56399;SDS011;42298;53.638;9.876;2023-07-20T05:27:07;4.70;;;2.90;;
56399;SDS011;42298;53.638;9.876;2023-07-20T05:29:32;4.88;;;2.92;;
56399;SDS011;42298;53.638;9.876;2023-07-20T05:31:58;6.88;;;3.40;;
56399;SDS011;42298;53.638;9.876;2023-07-20T05:34:23;5.97;;;3.05;;
56399;SDS011;42298;53.638;9.876;2023-07-20T05:36:48;5.07;;;2.83;;
56399;SDS011;42298;53.638;9.876;2023-07-20T05:39:16;4.63;;;2.90;;
56399;SDS011;42298;53.638;9.876;2023-07-20T05:41:42;5.80;;;2.83;;
56399;SDS011;42298;53.638;9.876;2023-07-20T05:44:07;6.03;;;3.00;;
56399;SDS011;42298;53.638;9.876;2023-07-20T05:46:32;5.85;;;2.70;;
56399;SDS011;42298;53.638;9.876;2023-07-20T05:48:57;4.22;;;2.80;;
56399;SDS011;42298;53.638;9.876;2023-07-20T05:51:24;4.57;;;2.88;;
56399;SDS011;42298;53.638;9.876;2023-07-20T05:53:49;6.10;;;2.70;;
56399;SDS011;42298;53.638;9.876;2023-07-20T05:56:15;4.10;;;2.15;;
56399;SDS011;42298;53.638;9.876;2023-07-20T05:58:40;4.38;;;2.60;;
56399;SDS011;42298;53.638;9.876;2023-07-20T06:01:05;8.05;;;2.67;;
56399;SDS011;42298;53.638;9.876;2023-07-20T06:03:31;4.78;;;2.35;;
56399;SDS011;42298;53.638;9.876;2023-07-20T06:06:01;6.88;;;2.50;;
56399;SDS011;42298;53.638;9.876;2023-07-20T06:08:27;3.88;;;1.90;;
56399;SDS011;42298;53.638;9.876;2023-07-20T06:10:54;6.35;;;2.33;;
56399;SDS011;42298;53.638;9.876;2023-07-20T06:13:19;3.65;;;1.90;;
56399;SDS011;42298;53.638;9.876;2023-07-20T06:15:45;5.15;;;1.90;;
56399;SDS011;42298;53.638;9.876;2023-07-20T06:18:10;6.00;;;2.08;;
56399;SDS011;42298;53.638;9.876;2023-07-20T06:20:35;4.70;;;1.98;;
56399;SDS011;42298;53.638;9.876;2023-07-20T06:23:02;4.85;;;1.90;;
56399;SDS011;42298;53.638;9.876;2023-07-20T06:25:28;4.65;;;2.00;;
56399;SDS011;42298;53.638;9.876;2023-07-20T06:27:54;3.58;;;1.80;;
56399;SDS011;42298;53.638;9.876;2023-07-20T06:30:20;4.43;;;2.08;;
56399;SDS011;42298;53.638;9.876;2023-07-20T06:32:46;5.88;;;1.83;;
56399;SDS011;42298;53.638;9.876;2023-07-20T06:35:11;5.68;;;2.20;;
56399;SDS011;42298;53.638;9.876;2023-07-20T06:37:36;5.50;;;1.90;;
56399;SDS011;42298;53.638;9.876;2023-07-20T06:40:02;2.25;;;1.48;;
56399;SDS011;42298;53.638;9.876;2023-07-20T06:42:28;4.00;;;1.67;;
56399;SDS011;42298;53.638;9.876;2023-07-20T06:44:54;5.00;;;1.70;;
56399;SDS011;42298;53.638;9.876;2023-07-20T06:47:19;4.25;;;1.83;;
56399;SDS011;42298;53.638;9.876;2023-07-20T06:49:45;4.38;;;1.88;;
56399;SDS011;42298;53.638;9.876;2023-07-20T06:52:10;6.35;;;1.98;;
56399;SDS011;42298;53.638;9.876;2023-07-20T06:54:35;6.97;;;1.75;;
56399;SDS011;42298;53.638;9.876;2023-07-20T06:57:01;7.78;;;2.20;;
56399;SDS011;42298;53.638;9.876;2023-07-20T06:59:26;5.07;;;1.92;;
56399;SDS011;42298;53.638;9.876;2023-07-20T07:01:51;4.30;;;1.77;;
56399;SDS011;42298;53.638;9.876;2023-07-20T07:04:16;3.13;;;1.90;;
56399;SDS011;42298;53.638;9.876;2023-07-20T07:06:42;4.55;;;1.90;;
56399;SDS011;42298;53.638;9.876;2023-07-20T07:09:07;5.78;;;2.05;;
56399;SDS011;42298;53.638;9.876;2023-07-20T07:11:33;4.95;;;1.63;;
56399;SDS011;42298;53.638;9.876;2023-07-20T07:13:59;4.75;;;1.58;;
56399;SDS011;42298;53.638;9.876;2023-07-20T07:16:24;3.83;;;1.67;;
56399;SDS011;42298;53.638;9.876;2023-07-20T07:18:50;7.45;;;1.90;;
56399;SDS011;42298;53.638;9.876;2023-07-20T07:21:15;6.65;;;1.98;;
56399;SDS011;42298;53.638;9.876;2023-07-20T07:23:41;7.30;;;2.05;;
56399;SDS011;42298;53.638;9.876;2023-07-20T07:26:06;4.30;;;1.45;;
56399;SDS011;42298;53.638;9.876;2023-07-20T07:28:32;3.53;;;1.73;;
56399;SDS011;42298;53.638;9.876;2023-07-20T07:30:57;3.78;;;1.50;;
56399;SDS011;42298;53.638;9.876;2023-07-20T07:33:23;4.60;;;2.13;;
56399;SDS011;42298;53.638;9.876;2023-07-20T07:35:49;6.47;;;2.03;;
56399;SDS011;42298;53.638;9.876;2023-07-20T07:38:15;3.80;;;1.90;;
56399;SDS011;42298;53.638;9.876;2023-07-20T07:40:41;6.78;;;2.45;;
56399;SDS011;42298;53.638;9.876;2023-07-20T07:43:07;9.05;;;2.47;;
56399;SDS011;42298;53.638;9.876;2023-07-20T07:45:34;7.13;;;2.40;;
56399;SDS011;42298;53.638;9.876;2023-07-20T07:48:03;6.28;;;2.50;;
56399;SDS011;42298;53.638;9.876;2023-07-20T07:50:29;9.73;;;3.00;;
56399;SDS011;42298;53.638;9.876;2023-07-20T07:52:55;9.27;;;2.67;;
56399;SDS011;42298;53.638;9.876;2023-07-20T07:55:20;9.43;;;2.80;;
56399;SDS011;42298;53.638;9.876;2023-07-20T07:57:45;7.88;;;2.80;;
56399;SDS011;42298;53.638;9.876;2023-07-20T08:00:12;7.45;;;2.50;;
56399;SDS011;42298;53.638;9.876;2023-07-20T08:02:40;9.25;;;2.88;;
56399;SDS011;42298;53.638;9.876;2023-07-20T08:05:06;10.52;;;2.70;;
56399;SDS011;42298;53.638;9.876;2023-07-20T08:07:32;8.13;;;2.47;;
56399;SDS011;42298;53.638;9.876;2023-07-20T08:09:57;6.53;;;2.45;;
56399;SDS011;42298;53.638;9.876;2023-07-20T08:12:22;10.07;;;2.85;;
56399;SDS011;42298;53.638;9.876;2023-07-20T08:14:49;9.65;;;2.78;;
56399;SDS011;42298;53.638;9.876;2023-07-20T08:17:14;11.15;;;2.60;;
56399;SDS011;42298;53.638;9.876;2023-07-20T08:19:39;7.15;;;2.50;;
56399;SDS011;42298;53.638;9.876;2023-07-20T08:22:06;8.88;;;2.50;;
56399;SDS011;42298;53.638;9.876;2023-07-20T08:24:32;6.57;;;2.00;;
56399;SDS011;42298;53.638;9.876;2023-07-20T08:26:58;11.25;;;2.90;;
56399;SDS011;42298;53.638;9.876;2023-07-20T08:29:23;8.77;;;2.67;;
56399;SDS011;42298;53.638;9.876;2023-07-20T08:31:49;6.25;;;2.40;;
56399;SDS011;42298;53.638;9.876;2023-07-20T08:34:14;8.88;;;2.60;;
56399;SDS011;42298;53.638;9.876;2023-07-20T08:36:39;6.78;;;2.00;;
56399;SDS011;42298;53.638;9.876;2023-07-20T08:39:05;5.75;;;2.00;;
56399;SDS011;42298;53.638;9.876;2023-07-20T08:41:30;9.98;;;2.70;;
56399;SDS011;42298;53.638;9.876;2023-07-20T08:43:56;7.90;;;2.63;;
56399;SDS011;42298;53.638;9.876;2023-07-20T08:46:23;7.65;;;2.38;;
56399;SDS011;42298;53.638;9.876;2023-07-20T08:48:51;7.72;;;3.00;;
56399;SDS011;42298;53.638;9.876;2023-07-20T08:51:17;9.82;;;2.95;;
56399;SDS011;42298;53.638;9.876;2023-07-20T08:53:45;9.82;;;2.75;;
56399;SDS011;42298;53.638;9.876;2023-07-20T08:56:10;8.63;;;2.25;;
56399;SDS011;42298;53.638;9.876;2023-07-20T08:58:37;10.68;;;2.50;;
56399;SDS011;42298;53.638;9.876;2023-07-20T09:01:04;8.55;;;2.58;;
56399;SDS011;42298;53.638;9.876;2023-07-20T09:03:29;9.02;;;2.03;;
56399;SDS011;42298;53.638;9.876;2023-07-20T09:05:55;4.32;;;1.77;;
56399;SDS011;42298;53.638;9.876;2023-07-20T09:08:20;6.57;;;1.70;;
56399;SDS011;42298;53.638;9.876;2023-07-20T09:10:45;5.85;;;1.70;;
56399;SDS011;42298;53.638;9.876;2023-07-20T09:13:15;6.50;;;1.85;;
56399;SDS011;42298;53.638;9.876;2023-07-20T09:15:45;4.53;;;1.73;;
56399;SDS011;42298;53.638;9.876;2023-07-20T09:18:25;9.15;;;2.00;;
56399;SDS011;42298;53.638;9.876;2023-07-20T09:20:51;5.38;;;1.90;;
56399;SDS011;42298;53.638;9.876;2023-07-20T09:23:16;4.97;;;1.70;;
56399;SDS011;42298;53.638;9.876;2023-07-20T09:25:41;4.10;;;1.58;;
56399;SDS011;42298;53.638;9.876;2023-07-20T09:28:07;6.05;;;1.80;;
56399;SDS011;42298;53.638;9.876;2023-07-20T09:30:32;8.05;;;1.75;;
56399;SDS011;42298;53.638;9.876;2023-07-20T09:32:58;6.55;;;1.88;;
56399;SDS011;42298;53.638;9.876;2023-07-20T09:35:24;5.50;;;1.33;;
56399;SDS011;42298;53.638;9.876;2023-07-20T09:37:50;5.22;;;1.30;;
56399;SDS011;42298;53.638;9.876;2023-07-20T09:40:17;4.95;;;1.48;;
56399;SDS011;42298;53.638;9.876;2023-07-20T09:42:43;8.50;;;1.50;;
56399;SDS011;42298;53.638;9.876;2023-07-20T09:45:09;5.32;;;1.63;;
56399;SDS011;42298;53.638;9.876;2023-07-20T09:47:35;7.80;;;1.75;;
56399;SDS011;42298;53.638;9.876;2023-07-20T09:50:02;5.35;;;1.55;;
56399;SDS011;42298;53.638;9.876;2023-07-20T09:52:28;5.60;;;1.67;;
56399;SDS011;42298;53.638;9.876;2023-07-20T09:54:54;6.45;;;1.65;;
56399;SDS011;42298;53.638;9.876;2023-07-20T09:57:20;4.07;;;1.17;;
56399;SDS011;42298;53.638;9.876;2023-07-20T09:59:46;5.60;;;1.50;;
56399;SDS011;42298;53.638;9.876;2023-07-20T10:02:15;5.40;;;1.38;;
56399;SDS011;42298;53.638;9.876;2023-07-20T10:04:46;6.13;;;1.40;;
56399;SDS011;42298;53.638;9.876;2023-07-20T10:07:12;4.78;;;1.40;;
56399;SDS011;42298;53.638;9.876;2023-07-20T10:09:39;2.97;;;1.30;;
56399;SDS011;42298;53.638;9.876;2023-07-20T10:12:06;4.97;;;1.10;;
56399;SDS011;42298;53.638;9.876;2023-07-20T10:14:38;3.90;;;1.20;;
56399;SDS011;42298;53.638;9.876;2023-07-20T10:17:11;2.85;;;1.02;;
56399;SDS011;42298;53.638;9.876;2023-07-20T10:22:15;5.85;;;1.73;;
56399;SDS011;42298;53.638;9.876;2023-07-20T10:24:45;3.50;;;1.10;;
56399;SDS011;42298;53.638;9.876;2023-07-20T10:27:13;3.85;;;1.27;;
56399;SDS011;42298;53.638;9.876;2023-07-20T10:29:39;3.63;;;1.40;;
56399;SDS011;42298;53.638;9.876;2023-07-20T10:32:06;5.63;;;1.65;;
56399;SDS011;42298;53.638;9.876;2023-07-20T10:34:33;7.22;;;1.30;;
56399;SDS011;42298;53.638;9.876;2023-07-20T10:36:58;3.50;;;1.35;;
56399;SDS011;42298;53.638;9.876;2023-07-20T10:39:24;4.10;;;1.27;;
56399;SDS011;42298;53.638;9.876;2023-07-20T10:41:59;3.22;;;1.40;;
56399;SDS011;42298;53.638;9.876;2023-07-20T10:44:44;5.32;;;1.33;;
56399;SDS011;42298;53.638;9.876;2023-07-20T10:47:11;3.38;;;1.27;;
56399;SDS011;42298;53.638;9.876;2023-07-20T10:52:25;5.07;;;1.50;;
56399;SDS011;42298;53.638;9.876;2023-07-20T10:54:51;6.20;;;1.60;;
56399;SDS011;42298;53.638;9.876;2023-07-20T10:57:37;2.10;;;1.00;;
56399;SDS011;42298;53.638;9.876;2023-07-20T11:00:09;5.75;;;1.48;;
56399;SDS011;42298;53.638;9.876;2023-07-20T11:02:46;4.88;;;1.40;;
56399;SDS011;42298;53.638;9.876;2023-07-20T11:05:32;4.10;;;1.60;;
56399;SDS011;42298;53.638;9.876;2023-07-20T11:08:03;4.68;;;1.33;;
56399;SDS011;42298;53.638;9.876;2023-07-20T11:10:29;4.22;;;1.30;;
56399;SDS011;42298;53.638;9.876;2023-07-20T11:15:45;4.80;;;1.30;;
56399;SDS011;42298;53.638;9.876;2023-07-20T11:18:12;1.58;;;0.80;;
56399;SDS011;42298;53.638;9.876;2023-07-20T11:20:38;2.58;;;0.80;;
56399;SDS011;42298;53.638;9.876;2023-07-20T11:23:04;4.10;;;1.10;;
56399;SDS011;42298;53.638;9.876;2023-07-20T11:25:39;3.50;;;1.20;;
56399;SDS011;42298;53.638;9.876;2023-07-20T11:28:08;1.48;;;0.95;;
56399;SDS011;42298;53.638;9.876;2023-07-20T11:30:37;3.50;;;1.00;;
56399;SDS011;42298;53.638;9.876;2023-07-20T11:33:08;5.57;;;1.00;;
56399;SDS011;42298;53.638;9.876;2023-07-20T11:35:43;3.60;;;0.90;;
56399;SDS011;42298;53.638;9.876;2023-07-20T11:38:13;4.95;;;1.48;;
56399;SDS011;42298;53.638;9.876;2023-07-20T11:40:45;8.18;;;1.40;;
56399;SDS011;42298;53.638;9.876;2023-07-20T11:43:11;3.60;;;1.20;;
56399;SDS011;42298;53.638;9.876;2023-07-20T11:45:37;1.38;;;0.77;;
56399;SDS011;42298;53.638;9.876;2023-07-20T11:48:03;3.88;;;1.20;;
56399;SDS011;42298;53.638;9.876;2023-07-20T11:50:29;3.97;;;1.15;;
56399;SDS011;42298;53.638;9.876;2023-07-20T11:52:54;4.65;;;1.10;;
56399;SDS011;42298;53.638;9.876;2023-07-20T11:55:21;5.47;;;1.38;;
56399;SDS011;42298;53.638;9.876;2023-07-20T11:58:03;3.33;;;1.15;;
56399;SDS011;42298;53.638;9.876;2023-07-20T12:00:29;4.82;;;1.27;;
56399;SDS011;42298;53.638;9.876;2023-07-20T12:02:55;2.83;;;1.30;;
56399;SDS011;42298;53.638;9.876;2023-07-20T12:05:22;3.50;;;1.15;;
56399;SDS011;42298;53.638;9.876;2023-07-20T12:07:48;2.78;;;0.85;;
56399;SDS011;42298;53.638;9.876;2023-07-20T12:10:15;2.50;;;1.23;;
56399;SDS011;42298;53.638;9.876;2023-07-20T12:12:43;6.35;;;1.58;;
56399;SDS011;42298;53.638;9.876;2023-07-20T12:15:16;10.07;;;2.05;;
56399;SDS011;42298;53.638;9.876;2023-07-20T12:17:42;8.20;;;1.60;;
56399;SDS011;42298;53.638;9.876;2023-07-20T12:20:11;6.38;;;1.55;;
56399;SDS011;42298;53.638;9.876;2023-07-20T12:22:40;5.07;;;1.42;;
56399;SDS011;42298;53.638;9.876;2023-07-20T12:25:08;8.27;;;1.98;;
56399;SDS011;42298;53.638;9.876;2023-07-20T12:27:36;5.85;;;1.50;;
56399;SDS011;42298;53.638;9.876;2023-07-20T12:30:03;6.20;;;1.80;;
56399;SDS011;42298;53.638;9.876;2023-07-20T12:32:30;7.00;;;2.00;;
56399;SDS011;42298;53.638;9.876;2023-07-20T12:34:56;4.88;;;1.73;;
56399;SDS011;42298;53.638;9.876;2023-07-20T12:37:21;6.13;;;1.70;;
56399;SDS011;42298;53.638;9.876;2023-07-20T12:39:47;2.92;;;1.20;;
56399;SDS011;42298;53.638;9.876;2023-07-20T12:42:12;5.97;;;1.38;;
56399;SDS011;42298;53.638;9.876;2023-07-20T12:44:41;4.40;;;1.20;;
56399;SDS011;42298;53.638;9.876;2023-07-20T12:47:06;2.50;;;1.30;;
56399;SDS011;42298;53.638;9.876;2023-07-20T12:49:32;4.35;;;1.23;;
56399;SDS011;42298;53.638;9.876;2023-07-20T12:51:57;4.95;;;1.15;;
56399;SDS011;42298;53.638;9.876;2023-07-20T12:54:24;1.95;;;0.98;;
56399;SDS011;42298;53.638;9.876;2023-07-20T12:56:50;2.45;;;1.10;;
56399;SDS011;42298;53.638;9.876;2023-07-20T12:59:15;4.60;;;1.38;;
56399;SDS011;42298;53.638;9.876;2023-07-20T13:01:40;3.10;;;1.25;;
56399;SDS011;42298;53.638;9.876;2023-07-20T13:04:06;3.83;;;1.30;;
56399;SDS011;42298;53.638;9.876;2023-07-20T13:06:34;4.53;;;1.15;;
56399;SDS011;42298;53.638;9.876;2023-07-20T13:08:59;5.82;;;1.48;;
56399;SDS011;42298;53.638;9.876;2023-07-20T13:11:26;4.07;;;1.30;;
56399;SDS011;42298;53.638;9.876;2023-07-20T13:13:51;2.05;;;0.90;;
56399;SDS011;42298;53.638;9.876;2023-07-20T13:16:17;3.97;;;1.15;;
56399;SDS011;42298;53.638;9.876;2023-07-20T13:18:42;4.55;;;1.30;;
56399;SDS011;42298;53.638;9.876;2023-07-20T13:21:08;3.97;;;1.17;;
56399;SDS011;42298;53.638;9.876;2023-07-20T13:23:36;3.47;;;1.05;;
56399;SDS011;42298;53.638;9.876;2023-07-20T13:26:02;4.28;;;1.33;;
56399;SDS011;42298;53.638;9.876;2023-07-20T13:28:28;4.03;;;1.55;;
56399;SDS011;42298;53.638;9.876;2023-07-20T13:30:53;3.55;;;1.35;;
56399;SDS011;42298;53.638;9.876;2023-07-20T13:33:18;6.38;;;1.30;;
56399;SDS011;42298;53.638;9.876;2023-07-20T13:35:44;3.55;;;1.40;;
56399;SDS011;42298;53.638;9.876;2023-07-20T13:38:09;5.23;;;1.20;;
56399;SDS011;42298;53.638;9.876;2023-07-20T13:40:35;1.83;;;0.90;;
56399;SDS011;42298;53.638;9.876;2023-07-20T13:43:01;3.53;;;1.00;;
56399;SDS011;42298;53.638;9.876;2023-07-20T13:45:27;2.35;;;0.85;;
56399;SDS011;42298;53.638;9.876;2023-07-20T13:47:52;3.80;;;1.20;;
56399;SDS011;42298;53.638;9.876;2023-07-20T13:50:17;3.72;;;1.25;;
56399;SDS011;42298;53.638;9.876;2023-07-20T13:52:43;2.33;;;1.15;;
56399;SDS011;42298;53.638;9.876;2023-07-20T13:55:08;3.95;;;1.50;;
56399;SDS011;42298;53.638;9.876;2023-07-20T13:57:33;5.70;;;1.52;;
56399;SDS011;42298;53.638;9.876;2023-07-20T13:59:58;4.43;;;1.17;;
56399;SDS011;42298;53.638;9.876;2023-07-20T14:02:25;4.53;;;1.30;;
56399;SDS011;42298;53.638;9.876;2023-07-20T14:04:51;3.00;;;1.20;;
56399;SDS011;42298;53.638;9.876;2023-07-20T14:07:16;5.35;;;1.23;;
56399;SDS011;42298;53.638;9.876;2023-07-20T14:09:41;4.20;;;1.30;;
56399;SDS011;42298;53.638;9.876;2023-07-20T14:12:07;2.95;;;1.10;;
56399;SDS011;42298;53.638;9.876;2023-07-20T14:14:36;4.65;;;1.30;;
56399;SDS011;42298;53.638;9.876;2023-07-20T14:17:01;3.90;;;1.27;;
56399;SDS011;42298;53.638;9.876;2023-07-20T14:19:26;2.63;;;1.05;;
56399;SDS011;42298;53.638;9.876;2023-07-20T14:21:52;5.63;;;1.30;;
56399;SDS011;42298;53.638;9.876;2023-07-20T14:24:17;4.43;;;1.15;;
56399;SDS011;42298;53.638;9.876;2023-07-20T14:26:43;4.68;;;1.42;;
56399;SDS011;42298;53.638;9.876;2023-07-20T14:29:08;5.32;;;1.20;;
56399;SDS011;42298;53.638;9.876;2023-07-20T14:31:33;5.05;;;1.40;;
56399;SDS011;42298;53.638;9.876;2023-07-20T14:33:58;2.90;;;1.20;;
56399;SDS011;42298;53.638;9.876;2023-07-20T14:36:24;3.90;;;1.50;;
56399;SDS011;42298;53.638;9.876;2023-07-20T14:38:49;4.00;;;1.27;;
56399;SDS011;42298;53.638;9.876;2023-07-20T14:41:15;6.65;;;1.45;;
56399;SDS011;42298;53.638;9.876;2023-07-20T14:43:40;5.78;;;1.38;;
56399;SDS011;42298;53.638;9.876;2023-07-20T14:46:06;3.92;;;1.27;;
56399;SDS011;42298;53.638;9.876;2023-07-20T14:48:31;5.93;;;1.70;;
56399;SDS011;42298;53.638;9.876;2023-07-20T14:50:56;5.25;;;1.40;;
56399;SDS011;42298;53.638;9.876;2023-07-20T14:53:22;5.88;;;1.20;;
56399;SDS011;42298;53.638;9.876;2023-07-20T14:55:47;4.32;;;1.65;;